Time;durP1;ratioP1;P1;durP2;ratioP2;P2;SDS_P1;SDS_P2;PMS_P1;PMS_P2;Temp;Humidity;BMP_temperature;BMP_pressure;BME280_temperature;BME280_humidity;BME280_pressure;Samples;Min_cycle;Max_cycle;Signal;HPM_P1;HPM_P2
2021/05/29 00:00:49;;;;;;;10.30;7.32;;;;;;;16.26;59.17;98779.19;5110912;28;20485;-82
2021/05/29 00:03:14;;;;;;;8.50;7.25;;;;;;;16.26;59.44;98777.31;5111021;28;20059;-82
2021/05/29 00:05:40;;;;;;;8.85;6.72;;;;;;;16.24;59.27;98779.53;5110810;28;20016;-82
2021/05/29 00:08:08;;;;;;;8.15;7.35;;;;;;;16.28;59.17;98772.38;5110828;28;20051;-82
2021/05/29 00:10:35;;;;;;;8.85;6.53;;;;;;;16.27;58.91;98770.00;5110643;28;20035;-83
2021/05/29 00:13:00;;;;;;;7.15;6.45;;;;;;;16.26;59.12;98773.78;5110761;28;20482;-82
2021/05/29 00:15:28;;;;;;;10.27;7.05;;;;;;;16.24;59.32;98773.34;5110911;28;20020;-82
2021/05/29 00:17:54;;;;;;;8.95;6.25;;;;;;;16.23;58.90;98780.63;5110862;28;20023;-82
2021/05/29 00:20:19;;;;;;;9.80;7.82;;;;;;;16.21;58.84;98776.66;5110667;28;20493;-82
2021/05/29 00:22:45;;;;;;;7.70;6.38;;;;;;;16.19;59.07;98768.91;5110417;28;20024;-84
2021/05/29 00:25:11;;;;;;;8.73;7.90;;;;;;;16.19;59.22;98770.81;5110666;28;20129;-84
2021/05/29 00:27:36;;;;;;;7.47;6.35;;;;;;;16.17;59.16;98774.63;5111681;28;20051;-84
2021/05/29 00:30:03;;;;;;;7.55;6.65;;;;;;;16.16;59.20;98772.22;5110592;28;20020;-84
2021/05/29 00:32:29;;;;;;;7.15;6.45;;;;;;;16.15;59.27;98768.75;5110276;28;20033;-84
2021/05/29 00:34:54;;;;;;;10.65;8.40;;;;;;;16.14;59.37;98769.84;5110442;28;20405;-85
2021/05/29 00:37:20;;;;;;;7.82;6.53;;;;;;;16.13;59.29;98772.88;5110486;28;20050;-84
2021/05/29 00:39:45;;;;;;;9.57;6.30;;;;;;;16.13;59.63;98768.25;5110181;28;20019;-83
2021/05/29 00:42:11;;;;;;;8.10;6.57;;;;;;;16.12;59.07;98780.16;5111679;28;20027;-83
2021/05/29 00:44:53;;;;;;;6.35;5.47;;;;;;;16.12;59.01;98774.78;5110093;28;20020;-83
2021/05/29 00:47:20;;;;;;;7.50;6.00;;;;;;;16.13;59.25;98768.25;5110216;28;20440;-83
2021/05/29 00:49:46;;;;;;;6.90;6.10;;;;;;;16.11;59.08;98769.69;5111074;28;20439;-83
2021/05/29 00:52:14;;;;;;;10.10;6.95;;;;;;;16.11;58.95;98758.91;5110264;28;20063;-83
2021/05/29 00:54:40;;;;;;;6.80;6.20;;;;;;;16.11;59.12;98772.41;5111396;28;20011;-84
2021/05/29 00:57:06;;;;;;;6.88;5.20;;;;;;;16.10;59.22;98760.00;5111500;28;20079;-84
2021/05/29 00:59:32;;;;;;;6.68;5.75;;;;;;;16.09;58.94;98761.94;5109908;28;20019;-84
2021/05/29 01:01:57;;;;;;;9.48;6.53;;;;;;;16.09;59.18;98758.47;5110077;28;20027;-84
2021/05/29 01:04:23;;;;;;;6.30;5.72;;;;;;;16.10;58.95;98760.00;5110200;28;20034;-84
2021/05/29 01:06:48;;;;;;;7.53;5.45;;;;;;;16.11;59.24;98756.22;5109837;28;20424;-84
2021/05/29 01:09:14;;;;;;;6.53;5.57;;;;;;;16.10;58.79;98750.03;5110086;28;20047;-84
2021/05/29 01:11:40;;;;;;;8.73;5.13;;;;;;;16.10;58.72;98755.44;5109834;28;20032;-84
2021/05/29 01:14:05;;;;;;;6.53;5.57;;;;;;;16.10;58.93;98741.13;5109720;28;20077;-84
2021/05/29 01:19:03;;;;;;;6.53;5.95;;;;;;;16.08;58.67;98735.28;5111348;28;20171;-84
2021/05/29 01:21:28;;;;;;;8.93;6.18;;;;;;;16.06;58.83;98737.50;5109963;28;20032;-84
2021/05/29 01:23:54;;;;;;;8.60;5.93;;;;;;;16.09;58.83;98734.19;5109442;28;20030;-84
2021/05/29 01:26:20;;;;;;;6.78;6.18;;;;;;;16.08;58.31;98727.19;5110388;28;20443;-84
2021/05/29 01:28:46;;;;;;;6.57;5.93;;;;;;;16.08;58.92;98733.38;5113833;28;20039;-84
2021/05/29 01:31:13;;;;;;;5.75;5.18;;;;;;;16.08;58.63;98729.91;5113961;28;20115;-83
2021/05/29 01:33:39;;;;;;;5.40;4.90;;;;;;;16.07;58.81;98725.59;5113635;28;20386;-84
2021/05/29 01:36:10;;;;;;;5.88;5.38;;;;;;;16.07;58.73;98723.69;5115470;28;20031;-84
2021/05/29 01:38:40;;;;;;;6.95;5.35;;;;;;;16.08;58.88;98721.81;5113587;28;20488;-84
2021/05/29 01:41:09;;;;;;;5.90;5.30;;;;;;;16.08;58.91;98719.09;5113721;28;20052;-84
2021/05/29 01:43:36;;;;;;;5.65;5.07;;;;;;;16.08;58.82;98714.50;5113517;28;20030;-84
2021/05/29 01:46:01;;;;;;;5.00;4.60;;;;;;;16.09;58.51;98712.59;5114783;28;20024;-84
2021/05/29 01:48:33;;;;;;;6.82;4.43;;;;;;;16.08;58.47;98716.41;5113671;28;20034;-85
2021/05/29 01:50:59;;;;;;;6.18;5.57;;;;;;;16.09;58.59;98715.28;5115372;28;20023;-85
2021/05/29 01:53:25;;;;;;;5.40;5.00;;;;;;;16.08;58.35;98722.56;5115558;28;20114;-84
2021/05/29 01:55:50;;;;;;;4.78;4.38;;;;;;;16.10;58.47;98719.56;5113305;28;20063;-83
2021/05/29 01:58:17;;;;;;;5.63;5.13;;;;;;;16.08;58.23;98721.81;5113525;28;20019;-83
2021/05/29 02:00:42;;;;;;;6.15;5.18;;;;;;;16.08;58.35;98721.81;5114513;28;20023;-84
2021/05/29 02:03:08;;;;;;;5.97;5.38;;;;;;;16.10;58.45;98719.56;5113434;28;20030;-84
2021/05/29 02:05:34;;;;;;;4.97;4.53;;;;;;;16.06;58.31;98722.09;5113343;28;20047;-84
2021/05/29 02:08:02;;;;;;;7.68;5.10;;;;;;;16.09;58.74;98723.38;5113321;28;20493;-84
2021/05/29 02:10:30;;;;;;;6.15;4.80;;;;;;;16.07;58.81;98712.13;5114447;28;20023;-84
2021/05/29 02:12:58;;;;;;;5.07;4.57;;;;;;;16.06;58.50;98718.63;5112961;28;20501;-83
2021/05/29 02:15:28;;;;;;;8.02;7.20;;;;;;;16.03;58.39;98713.84;5113239;28;20027;-84
2021/05/29 02:17:55;;;;;;;4.55;4.15;;;;;;;16.05;58.24;98714.34;5113910;28;20506;-84
2021/05/29 02:20:47;;;;;;;5.03;4.57;;;;;;;16.05;58.61;98725.94;5113044;28;20462;-84
2021/05/29 02:23:15;;;;;;;4.70;4.30;;;;;;;16.03;58.53;98716.56;5114352;28;20020;-84
2021/05/29 02:25:41;;;;;;;4.40;4.10;;;;;;;16.02;58.70;98720.38;5112541;28;20038;-83
2021/05/29 02:28:08;;;;;;;5.00;4.57;;;;;;;15.98;58.44;98722.94;5113008;28;20466;-84
2021/05/29 02:30:34;;;;;;;5.15;4.75;;;;;;;15.99;58.28;98724.50;5113903;28;20027;-84
2021/05/29 02:33:01;;;;;;;5.70;4.40;;;;;;;15.99;58.45;98724.50;5114952;28;20027;-84
2021/05/29 02:35:27;;;;;;;5.00;4.60;;;;;;;15.98;58.01;98725.63;5113221;28;20364;-84
2021/05/29 02:37:54;;;;;;;7.43;4.88;;;;;;;15.99;58.14;98728.00;5111463;28;20106;-85
2021/05/29 02:40:19;;;;;;;4.93;4.53;;;;;;;15.99;57.96;98727.19;5112528;28;20050;-84
2021/05/29 02:42:45;;;;;;;5.93;5.35;;;;;;;15.98;58.36;98725.63;5113913;28;20020;-84
2021/05/29 02:45:12;;;;;;;4.93;4.03;;;;;;;15.99;58.15;98730.69;5112693;28;20023;-84
2021/05/29 02:47:38;;;;;;;10.35;4.75;;;;;;;15.99;57.89;98740.66;5112432;28;20026;-83
2021/05/29 02:50:04;;;;;;;4.72;4.32;;;;;;;15.99;58.14;98733.38;5112690;28;20021;-84
2021/05/29 02:52:30;;;;;;;5.30;4.30;;;;;;;15.98;58.36;98734.50;5114039;28;20393;-84
2021/05/29 02:54:56;;;;;;;4.60;4.30;;;;;;;16.00;58.20;98742.25;5112130;28;20020;-84
2021/05/29 02:57:21;;;;;;;5.28;4.38;;;;;;;16.02;58.10;98744.66;5112523;28;20095;-83
2021/05/29 02:59:47;;;;;;;5.07;4.38;;;;;;;16.02;57.82;98760.84;5112160;28;20114;-84
2021/05/29 03:02:13;;;;;;;5.18;4.78;;;;;;;16.02;58.13;98758.16;5112427;28;20022;-84
2021/05/29 03:04:39;;;;;;;4.57;4.28;;;;;;;16.00;58.06;98759.25;5112097;28;20020;-84
2021/05/29 03:07:04;;;;;;;5.00;4.45;;;;;;;15.98;57.94;98755.28;5112000;28;20129;-84
2021/05/29 03:09:32;;;;;;;4.97;4.57;;;;;;;16.04;58.01;98772.91;5112302;28;20026;-84
2021/05/29 03:11:58;;;;;;;4.28;3.97;;;;;;;16.03;58.15;98763.22;5112057;28;20024;-83
2021/05/29 03:14:24;;;;;;;4.60;4.22;;;;;;;16.06;57.91;98773.34;5112001;28;20396;-84
2021/05/29 03:16:50;;;;;;;4.50;4.10;;;;;;;16.05;57.81;98776.38;5113415;28;20029;-84
2021/05/29 03:19:16;;;;;;;4.45;4.07;;;;;;;16.05;57.55;98768.28;5112042;28;20032;-83
2021/05/29 03:21:43;;;;;;;7.38;4.95;;;;;;;16.06;57.66;98761.78;5111775;28;20475;-84
2021/05/29 03:24:09;;;;;;;5.03;3.22;;;;;;;16.08;57.80;98759.56;5113130;28;20024;-84
2021/05/29 03:26:35;;;;;;;4.63;4.22;;;;;;;16.08;57.55;98767.66;5111655;28;20054;-83
2021/05/29 03:29:02;;;;;;;4.88;4.32;;;;;;;16.05;57.46;98763.69;5111672;28;20467;-84
2021/05/29 03:31:28;;;;;;;5.50;4.30;;;;;;;16.06;57.73;98769.88;5112513;28;20024;-84
2021/05/29 03:33:53;;;;;;;7.55;4.03;;;;;;;16.04;57.51;98764.81;5112143;28;20117;-84
2021/05/29 03:36:19;;;;;;;5.05;3.80;;;;;;;16.06;57.38;98767.94;5112020;28;20027;-84
2021/05/29 03:38:44;;;;;;;5.18;4.70;;;;;;;16.08;57.59;98781.94;5111558;28;20486;-83
2021/05/29 03:41:10;;;;;;;5.50;4.47;;;;;;;16.09;57.63;98772.72;5112751;28;20081;-84
2021/05/29 03:43:37;;;;;;;5.43;4.30;;;;;;;16.10;57.49;98785.09;5111816;28;20454;-84
2021/05/29 03:46:03;;;;;;;4.50;4.10;;;;;;;16.13;57.52;98776.34;5111600;28;20027;-84
2021/05/29 03:48:29;;;;;;;3.58;3.28;;;;;;;16.16;57.33;98764.13;5111513;28;20406;-83
2021/05/29 03:50:54;;;;;;;6.07;5.05;;;;;;;16.14;57.74;98759.06;5111176;28;20020;-83
2021/05/29 03:53:20;;;;;;;4.00;3.70;;;;;;;16.15;57.87;98766.06;5112803;28;20462;-84
2021/05/29 03:55:45;;;;;;;4.55;4.20;;;;;;;16.16;57.64;98756.84;5111240;28;20435;-84
2021/05/29 03:58:11;;;;;;;5.90;3.60;;;;;;;16.17;57.40;98761.13;5111536;28;20462;-84
2021/05/29 04:00:37;;;;;;;4.20;3.83;;;;;;;16.21;57.19;98761.28;5111327;28;20024;-84
2021/05/29 04:03:02;;;;;;;4.00;3.65;;;;;;;16.25;57.13;98770.31;5112391;28;20515;-83
2021/05/29 04:05:28;;;;;;;3.85;3.58;;;;;;;16.29;57.22;98773.94;5111172;28;20031;-83
2021/05/29 04:07:53;;;;;;;3.67;3.38;;;;;;;16.32;57.16;98770.63;5111249;28;20019;-84
2021/05/29 04:10:27;;;;;;;5.55;3.47;;;;;;;16.39;56.60;98772.03;5111245;28;20641;-84
2021/05/29 04:12:55;;;;;;;5.65;3.38;;;;;;;16.43;56.57;98772.97;5110809;28;20016;-83
2021/05/29 04:15:21;;;;;;;6.83;3.73;;;;;;;16.48;56.52;98768.19;5111141;28;20436;-84
2021/05/29 04:17:48;;;;;;;4.88;3.17;;;;;;;16.51;56.36;98769.47;5110972;28;20454;-83
2021/05/29 04:20:16;;;;;;;4.90;3.10;;;;;;;16.54;56.33;98771.53;5111646;28;20025;-84
2021/05/29 04:22:42;;;;;;;3.60;3.30;;;;;;;16.57;56.34;98770.88;5112453;28;20031;-84
2021/05/29 04:25:13;;;;;;;5.43;3.33;;;;;;;16.56;55.86;98760.41;5111109;28;20022;-84
2021/05/29 04:27:39;;;;;;;3.75;3.45;;;;;;;16.56;56.28;98761.19;5110759;28;20043;-84
2021/05/29 04:30:07;;;;;;;6.82;3.42;;;;;;;16.56;56.09;98771.19;5112143;28;20034;-83
2021/05/29 04:32:33;;;;;;;3.42;2.95;;;;;;;16.60;56.24;98778.34;5114611;28;20027;-83
2021/05/29 04:34:58;;;;;;;3.92;3.22;;;;;;;16.64;56.24;98786.59;5113552;28;20103;-83
2021/05/29 04:37:24;;;;;;;3.88;3.55;;;;;;;16.68;56.04;98798.31;5114236;28;20024;-83
2021/05/29 04:39:49;;;;;;;7.40;3.35;;;;;;;16.82;55.87;98790.03;5111002;28;20478;-82
2021/05/29 04:42:15;;;;;;;6.75;3.28;;;;;;;16.95;55.58;98791.75;5111542;28;20114;-82
2021/05/29 04:44:41;;;;;;;6.47;3.50;;;;;;;17.03;55.58;98784.72;5112328;28;20390;-82
2021/05/29 04:47:06;;;;;;;5.80;3.05;;;;;;;17.10;54.95;98786.88;5110776;28;20023;-82
2021/05/29 04:49:32;;;;;;;3.35;3.05;;;;;;;17.18;55.08;98780.66;5112474;28;20030;-83
2021/05/29 04:51:59;;;;;;;3.78;3.10;;;;;;;17.19;54.85;98794.97;5110656;28;20026;-82
2021/05/29 04:54:25;;;;;;;4.15;3.80;;;;;;;17.18;54.71;98796.09;5110462;28;20076;-83
2021/05/29 04:56:50;;;;;;;3.47;3.17;;;;;;;17.18;54.72;98796.88;5110375;28;20451;-83
2021/05/29 04:59:16;;;;;;;3.40;2.92;;;;;;;17.19;54.67;98800.38;5111880;28;20030;-82
2021/05/29 05:01:42;;;;;;;4.70;3.65;;;;;;;17.27;54.61;98804.91;5113562;28;20026;-83
2021/05/29 05:04:07;;;;;;;3.10;2.90;;;;;;;17.44;54.73;98802.13;5116930;28;20471;-82
2021/05/29 05:06:33;;;;;;;4.35;3.63;;;;;;;17.83;54.35;98798.53;5117111;28;20149;-82
2021/05/29 05:08:59;;;;;;;5.53;3.10;;;;;;;18.37;53.34;98795.03;5116955;28;20486;-82
2021/05/29 05:11:25;;;;;;;2.55;2.35;;;;;;;19.01;51.87;98792.94;5118104;27;20108;-82
2021/05/29 05:13:50;;;;;;;3.88;2.30;;;;;;;19.70;50.16;98800.41;5116833;28;20016;-82
2021/05/29 05:16:17;;;;;;;5.68;3.00;;;;;;;20.34;48.94;98801.44;5118140;27;20109;-82
2021/05/29 05:18:43;;;;;;;3.45;2.40;;;;;;;21.04;47.35;98799.34;5116949;28;20027;-82
2021/05/29 05:21:09;;;;;;;2.28;2.10;;;;;;;21.69;45.72;98806.25;5117488;27;20480;-82
2021/05/29 05:23:35;;;;;;;2.47;2.28;;;;;;;22.22;44.15;98800.31;5116819;28;20048;-81
2021/05/29 05:26:02;;;;;;;2.35;2.22;;;;;;;22.73;43.06;98812.94;5117466;27;20044;-82
2021/05/29 05:28:29;;;;;;;3.67;2.10;;;;;;;22.99;41.27;98808.69;5116855;28;20465;-82
2021/05/29 05:31:00;;;;;;;3.00;2.30;;;;;;;23.05;41.50;98806.44;5116535;28;20026;-82
2021/05/29 05:33:26;;;;;;;2.78;2.22;;;;;;;23.02;41.08;98816.91;5118061;28;20024;-82
2021/05/29 05:35:53;;;;;;;4.00;1.77;;;;;;;23.10;41.53;98812.34;5116346;28;20080;-82
2021/05/29 05:38:19;;;;;;;3.50;2.15;;;;;;;23.38;40.57;98813.97;5116741;28;20135;-82
2021/05/29 05:40:45;;;;;;;2.65;2.45;;;;;;;23.63;40.24;98819.78;5116570;28;20057;-82
2021/05/29 05:43:11;;;;;;;3.50;3.20;;;;;;;23.90;40.08;98825.19;5117742;27;20478;-82
2021/05/29 05:45:37;;;;;;;3.40;2.08;;;;;;;24.20;39.08;98829.84;5118455;27;20023;-82
2021/05/29 05:48:02;;;;;;;2.70;2.20;;;;;;;24.37;39.11;98828.47;5116350;28;20019;-82
2021/05/29 05:50:29;;;;;;;2.50;2.33;;;;;;;24.48;37.91;98833.28;5116829;28;20122;-82
2021/05/29 05:52:54;;;;;;;5.53;2.30;;;;;;;24.52;37.76;98836.84;5116884;28;20019;-83
2021/05/29 05:55:20;;;;;;;3.05;2.42;;;;;;;24.24;37.69;98836.16;5116729;28;20027;-82
2021/05/29 05:57:45;;;;;;;3.33;2.22;;;;;;;23.98;37.81;98837.03;5116624;28;20072;-82
2021/05/29 06:00:14;;;;;;;2.80;2.47;;;;;;;23.76;38.61;98833.97;5116439;28;20492;-81
2021/05/29 06:02:42;;;;;;;2.10;2.00;;;;;;;23.41;39.84;98843.25;5116504;28;20030;-82
2021/05/29 06:05:08;;;;;;;3.33;2.10;;;;;;;23.37;40.44;98833.44;5116251;28;20043;-82
2021/05/29 06:07:34;;;;;;;2.95;2.35;;;;;;;23.41;39.91;98837.81;5116433;28;20484;-81
2021/05/29 06:09:59;;;;;;;2.10;1.88;;;;;;;23.41;40.04;98837.81;5116360;28;20058;-82
2021/05/29 06:12:25;;;;;;;1.65;1.55;;;;;;;23.59;40.51;98829.84;5115783;28;20039;-82
2021/05/29 06:20:18;;;;;;;3.33;1.88;;;;;;;24.43;38.36;98839.88;5114378;28;20043;-82
2021/05/29 06:22:44;;;;;;;2.40;1.92;;;;;;;24.65;38.18;98842.84;5112827;28;20455;-81
2021/05/29 06:25:13;;;;;;;2.90;2.35;;;;;;;24.83;38.51;98848.47;5112667;28;20028;-81
2021/05/29 06:27:39;;;;;;;1.90;1.80;;;;;;;24.90;37.09;98843.06;5113889;28;20118;-80
2021/05/29 06:30:08;;;;;;;1.80;1.70;;;;;;;24.96;37.09;98835.31;5112591;28;20051;-81
2021/05/29 06:32:35;;;;;;;3.40;1.85;;;;;;;25.01;36.88;98834.97;5112740;28;20485;-81
2021/05/29 06:35:00;;;;;;;1.97;1.73;;;;;;;24.99;36.81;98835.34;5112619;28;20467;-81
2021/05/29 06:37:26;;;;;;;1.80;1.70;;;;;;;25.04;37.30;98839.69;5112893;28;20269;-81
2021/05/29 06:39:51;;;;;;;2.60;1.90;;;;;;;25.04;36.95;98847.91;5112700;28;20046;-81
2021/05/29 06:42:17;;;;;;;1.80;1.70;;;;;;;25.01;37.92;98859.59;5112812;28;20024;-82
2021/05/29 06:44:42;;;;;;;2.30;2.10;;;;;;;24.83;37.14;98853.94;5113363;28;20019;-81
2021/05/29 06:47:08;;;;;;;5.22;2.25;;;;;;;24.69;37.38;98863.59;5114202;28;20034;-81
2021/05/29 06:49:39;;;;;;;5.65;2.25;;;;;;;24.61;37.69;98859.97;5112947;28;20020;-81
2021/05/29 06:52:13;;;;;;;3.20;2.30;;;;;;;24.42;38.78;98857.44;5112446;28;20024;-83
2021/05/29 07:00:09;;;;;;;2.33;2.10;;;;;;;24.15;38.28;98860.25;5113541;28;20173;-82
2021/05/29 07:02:35;;;;;;;1.90;1.58;;;;;;;24.03;38.79;98865.97;5112424;28;20046;-82
2021/05/29 07:05:04;;;;;;;3.00;2.00;;;;;;;23.98;38.60;98867.06;5111936;28;20454;-82
2021/05/29 07:07:30;;;;;;;4.75;2.33;;;;;;;23.89;38.95;98870.03;5112255;28;20019;-81
2021/05/29 07:09:56;;;;;;;3.53;2.13;;;;;;;23.82;39.31;98870.72;5111978;28;20493;-80
2021/05/29 07:12:21;;;;;;;1.70;1.60;;;;;;;23.82;39.51;98870.72;5113883;28;20023;-81
2021/05/29 07:14:47;;;;;;;2.45;1.92;;;;;;;23.74;39.51;98871.81;5111976;28;20027;-81
2021/05/29 07:17:13;;;;;;;2.17;1.77;;;;;;;23.61;39.59;98870.44;5111843;28;20015;-80
2021/05/29 07:19:39;;;;;;;2.67;2.28;;;;;;;23.52;39.76;98875.38;5112135;28;20023;-81
2021/05/29 07:22:04;;;;;;;3.45;3.05;;;;;;;23.43;39.83;98881.09;5111925;28;20363;-81
2021/05/29 07:24:31;;;;;;;2.20;2.08;;;;;;;23.38;40.17;98879.47;5112597;28;20081;-81
2021/05/29 07:26:57;;;;;;;2.67;2.47;;;;;;;23.39;40.03;98874.78;5111462;28;20111;-81
2021/05/29 07:29:23;;;;;;;4.00;2.88;;;;;;;23.32;40.59;98887.16;5113073;28;20416;-81
2021/05/29 07:31:49;;;;;;;1.85;1.75;;;;;;;23.28;40.94;98869.19;5111692;28;20081;-81
2021/05/29 07:34:15;;;;;;;2.33;2.13;;;;;;;23.17;40.79;98880.69;5111431;28;20028;-82
2021/05/29 07:36:41;;;;;;;3.53;2.90;;;;;;;23.17;40.79;98874.47;5113788;28;20026;-81
2021/05/29 07:39:08;;;;;;;2.97;2.65;;;;;;;23.12;40.69;98883.69;5111929;28;20076;-80
2021/05/29 07:41:35;;;;;;;3.22;2.60;;;;;;;23.12;40.91;98888.34;5111497;28;20019;-82
2021/05/29 07:44:00;;;;;;;3.42;2.38;;;;;;;23.06;40.34;98882.44;5111444;28;20474;-82
2021/05/29 07:46:27;;;;;;;4.20;2.38;;;;;;;23.01;40.56;98882.75;5111482;28;20034;-82
2021/05/29 07:48:53;;;;;;;2.38;2.13;;;;;;;22.98;41.17;98875.28;5111618;28;20485;-82
2021/05/29 07:51:18;;;;;;;2.03;1.92;;;;;;;22.97;41.51;98876.41;5111287;28;20115;-82
2021/05/29 07:53:45;;;;;;;4.38;2.17;;;;;;;22.98;41.70;98878.00;5111261;28;20016;-81
2021/05/29 07:56:20;;;;;;;4.90;2.65;;;;;;;22.93;41.07;98891.94;5111463;28;20027;-84
2021/05/29 07:58:48;;;;;;;2.22;2.13;;;;;;;22.82;41.59;98886.28;5111448;28;20030;-82
2021/05/29 08:01:15;;;;;;;2.40;2.20;;;;;;;22.86;42.27;98887.13;5111132;28;20030;-81
2021/05/29 08:03:41;;;;;;;2.60;1.88;;;;;;;22.88;42.53;98884.84;5111140;28;20477;-81
2021/05/29 08:06:19;;;;;;;5.90;2.03;;;;;;;22.84;41.89;98882.06;5110755;28;20066;-81
2021/05/29 08:08:45;;;;;;;3.15;1.90;;;;;;;22.99;41.92;98874.91;5111187;28;20458;-82
2021/05/29 08:11:22;;;;;;;2.92;2.72;;;;;;;23.09;42.34;98887.13;5110629;28;20038;-81
2021/05/29 08:13:49;;;;;;;2.60;2.40;;;;;;;23.12;41.72;98894.59;5112286;28;20022;-81
2021/05/29 08:16:16;;;;;;;2.80;1.73;;;;;;;23.07;41.84;98891.38;5110856;28;20047;-81
2021/05/29 08:18:42;;;;;;;2.13;2.03;;;;;;;23.08;41.39;98890.25;5111089;28;20025;-81
2021/05/29 08:21:07;;;;;;;3.45;1.95;;;;;;;23.08;41.65;98896.47;5110617;28;20056;-82
2021/05/29 08:23:33;;;;;;;4.28;1.95;;;;;;;23.12;41.66;98896.53;5111007;28;20024;-82
2021/05/29 08:25:59;;;;;;;2.50;2.30;;;;;;;23.13;42.22;98898.91;5110389;28;20047;-81
2021/05/29 08:28:24;;;;;;;1.60;1.40;;;;;;;23.06;41.50;98903.44;5111021;28;20019;-81
2021/05/29 08:30:50;;;;;;;2.40;2.20;;;;;;;23.03;41.41;98903.03;5110699;28;20027;-81
2021/05/29 08:33:15;;;;;;;2.28;2.05;;;;;;;23.06;41.42;98903.44;5110430;28;20046;-82
2021/05/29 08:35:41;;;;;;;2.15;2.05;;;;;;;23.15;41.99;98896.59;5110013;28;20023;-81
2021/05/29 08:38:06;;;;;;;2.40;2.20;;;;;;;23.23;42.87;98894.81;5110076;28;20094;-82
2021/05/29 08:40:33;;;;;;;4.63;2.55;;;;;;;23.27;41.81;98892.94;5110497;28;20031;-81
2021/05/29 08:42:58;;;;;;;1.95;1.85;;;;;;;23.36;41.46;98900.09;5110432;28;20024;-81
2021/05/29 08:45:24;;;;;;;2.30;1.60;;;;;;;23.26;41.03;98898.75;5110396;28;20015;-81
2021/05/29 08:47:50;;;;;;;2.13;2.03;;;;;;;23.13;40.41;98895.38;5110735;28;20047;-81
2021/05/29 08:50:17;;;;;;;2.70;2.50;;;;;;;23.11;40.65;98897.72;5110411;28;20084;-81
2021/05/29 08:52:43;;;;;;;3.08;1.95;;;;;;;23.15;40.67;98893.88;5110437;28;20038;-81
2021/05/29 08:55:12;;;;;;;2.10;2.00;;;;;;;23.21;40.70;98894.38;5109682;28;20016;-81
2021/05/29 08:57:38;;;;;;;3.05;1.80;;;;;;;23.32;40.15;98903.53;5111611;28;20532;-82
2021/05/29 09:00:06;;;;;;;1.75;1.60;;;;;;;23.40;39.94;98900.91;5109957;28;20111;-81
2021/05/29 09:02:31;;;;;;;1.60;1.50;;;;;;;23.39;39.89;98889.22;5109919;28;20020;-81
2021/05/29 09:05:11;;;;;;;1.77;1.50;;;;;;;23.36;39.65;98897.34;5110292;28;20035;-82
2021/05/29 09:07:36;;;;;;;3.67;1.70;;;;;;;23.39;40.55;98889.22;5110197;28;20031;-81
2021/05/29 09:10:22;;;;;;;1.60;1.50;;;;;;;23.38;38.49;98887.66;5110099;28;20028;-82
2021/05/29 09:13:05;;;;;;;2.30;2.10;;;;;;;23.24;38.12;98890.94;5111049;28;20023;-83
2021/05/29 09:15:59;;;;;;;1.80;1.70;;;;;;;23.17;39.33;98890.81;5110455;28;20084;-82
2021/05/29 09:18:46;;;;;;;1.63;1.52;;;;;;;23.22;39.55;98882.31;5111625;28;20371;-82
2021/05/29 09:21:27;;;;;;;3.95;1.60;;;;;;;23.27;40.38;98879.28;5111859;28;20041;-81
2021/05/29 09:24:01;;;;;;;5.32;2.35;;;;;;;23.37;40.11;98888.78;5110408;28;20057;-81
2021/05/29 09:26:50;;;;;;;1.85;1.75;;;;;;;23.43;40.08;98868.22;5110001;28;20131;-81
2021/05/29 09:29:18;;;;;;;2.33;1.55;;;;;;;23.49;39.44;98865.97;5110014;28;20085;-81
2021/05/29 09:31:57;;;;;;;2.70;2.50;;;;;;;23.52;40.14;98864.44;5110689;28;20027;-81
2021/05/29 09:34:43;;;;;;;1.58;1.48;;;;;;;23.60;39.69;98860.69;5110180;28;20023;-81
2021/05/29 09:37:27;;;;;;;1.65;1.55;;;;;;;23.54;38.11;98854.75;5110156;28;20020;-81
2021/05/29 09:39:59;;;;;;;3.60;1.58;;;;;;;23.57;39.67;98850.47;5110373;28;20016;-81
2021/05/29 09:42:37;;;;;;;2.40;1.88;;;;;;;23.67;39.87;98855.31;5111718;28;20020;-81
2021/05/29 09:45:25;;;;;;;2.20;1.30;;;;;;;23.71;40.17;98861.59;5111364;28;20023;-81
2021/05/29 09:48:10;;;;;;;2.33;1.98;;;;;;;23.82;39.96;98859.81;5111480;28;20085;-81
2021/05/29 09:50:36;;;;;;;2.42;2.17;;;;;;;23.81;38.08;98862.91;5114095;28;20023;-81
2021/05/29 09:53:02;;;;;;;1.85;1.75;;;;;;;23.72;38.37;98865.91;5113545;28;20031;-81
2021/05/29 09:55:38;;;;;;;1.67;1.48;;;;;;;23.73;39.10;98861.22;5115416;28;20096;-81
2021/05/29 09:58:04;;;;;;;3.90;2.72;;;;;;;23.78;40.17;98864.44;5113669;28;20437;-81
2021/05/29 10:00:41;;;;;;;2.90;2.05;;;;;;;23.83;39.10;98855.91;5114321;28;20518;-82
2021/05/29 10:03:07;;;;;;;1.77;1.67;;;;;;;23.89;37.91;98863.78;5114942;28;20059;-82
2021/05/29 10:05:36;;;;;;;3.17;2.13;;;;;;;23.92;38.97;98852.94;5113544;28;20047;-81
2021/05/29 10:08:04;;;;;;;2.67;1.63;;;;;;;24.04;39.26;98853.88;5114371;28;20091;-80
2021/05/29 10:10:29;;;;;;;3.35;2.03;;;;;;;24.10;39.10;98844.19;5113320;28;20034;-80
2021/05/29 10:12:55;;;;;;;1.90;1.80;;;;;;;24.11;39.03;98841.09;5113442;28;20024;-80
2021/05/29 10:15:21;;;;;;;3.03;1.80;;;;;;;24.08;38.89;98850.03;5112551;28;20489;-81
2021/05/29 10:17:47;;;;;;;2.15;2.00;;;;;;;23.98;38.13;98846.00;5113235;28;20387;-81
2021/05/29 10:20:15;;;;;;;2.20;2.00;;;;;;;24.04;39.53;98851.16;5112969;28;20428;-81
2021/05/29 10:22:43;;;;;;;4.57;1.93;;;;;;;24.05;39.75;98837.09;5113029;28;20048;-80
2021/05/29 10:25:12;;;;;;;1.65;1.55;;;;;;;24.12;39.29;98839.13;5114017;28;20019;-81
2021/05/29 10:27:43;;;;;;;2.58;1.60;;;;;;;24.13;38.77;98838.78;5112804;28;20403;-80
2021/05/29 10:30:09;;;;;;;2.20;1.70;;;;;;;24.17;39.78;98835.28;5112773;28;20023;-80
2021/05/29 10:32:35;;;;;;;9.60;4.53;;;;;;;24.23;39.89;98839.25;5112946;28;20478;-81
2021/05/29 10:35:08;;;;;;;2.20;1.95;;;;;;;24.29;39.03;98837.75;5112460;28;20422;-81
2021/05/29 10:37:41;;;;;;;2.03;1.85;;;;;;;24.34;39.09;98842.91;5112854;28;20023;-80
2021/05/29 10:40:15;;;;;;;1.83;1.67;;;;;;;24.40;38.08;98846.06;5112423;28;20474;-80
2021/05/29 10:42:41;;;;;;;6.80;3.30;;;;;;;24.28;36.49;98830.75;5112726;28;20020;-81
2021/05/29 10:45:14;;;;;;;2.80;2.42;;;;;;;24.15;36.80;98841.13;5113811;28;20070;-80
2021/05/29 10:48:04;;;;;;;1.70;1.60;;;;;;;24.19;36.97;98835.72;5112708;28;20020;-80
2021/05/29 10:53:41;;;;;;;2.50;2.20;;;;;;;24.00;36.83;98836.63;5113820;28;20308;-82
2021/05/29 10:56:16;;;;;;;2.50;2.30;;;;;;;23.92;37.28;98831.09;5113727;28;20027;-81
2021/05/29 10:59:01;;;;;;;3.53;3.15;;;;;;;23.92;39.27;98831.09;5111984;28;20081;-81
2021/05/29 11:01:32;;;;;;;2.75;1.90;;;;;;;23.89;36.99;98833.75;5112721;28;20138;-81
2021/05/29 11:04:16;;;;;;;3.22;2.63;;;;;;;23.93;37.99;98826.44;5113522;28;20023;-81
2021/05/29 11:06:50;;;;;;;1.77;1.67;;;;;;;23.96;38.65;98817.47;5112607;28;20486;-81
2021/05/29 11:09:35;;;;;;;2.90;1.90;;;;;;;24.08;38.95;98817.25;5113414;28;20028;-81
2021/05/29 11:12:05;;;;;;;3.40;1.33;;;;;;;24.14;38.49;98815.75;5111487;27;20517;-81
2021/05/29 11:14:52;;;;;;;2.30;1.42;;;;;;;24.28;38.02;98817.84;5113679;28;20459;-81
2021/05/29 11:17:25;;;;;;;1.98;1.60;;;;;;;24.40;37.55;98807.81;5111833;28;20486;-81
2021/05/29 11:20:19;;;;;;;1.27;1.13;;;;;;;24.50;37.41;98815.34;5111995;28;20027;-81
2021/05/29 11:22:49;;;;;;;1.95;1.83;;;;;;;24.53;37.50;98811.06;5113296;28;20016;-81
2021/05/29 11:25:18;;;;;;;2.05;1.50;;;;;;;24.60;38.47;98817.38;5111656;28;20107;-81
2021/05/29 11:27:45;;;;;;;2.08;1.50;;;;;;;24.68;38.20;98812.81;5113256;28;20035;-81
2021/05/29 11:30:22;;;;;;;3.30;1.83;;;;;;;24.78;37.20;98809.38;5113202;27;20023;-81
2021/05/29 11:35:27;;;;;;;1.63;1.52;;;;;;;24.93;37.18;98802.06;5112853;27;20023;-80
2021/05/29 11:37:57;;;;;;;4.53;1.45;;;;;;;24.95;37.74;98796.25;5111553;28;20028;-80
2021/05/29 11:40:49;;;;;;;1.30;1.17;;;;;;;24.94;35.37;98802.88;5111487;28;20076;-80
2021/05/29 11:43:17;;;;;;;3.85;1.70;;;;;;;24.89;36.96;98804.00;5112747;28;20080;-81
2021/05/29 11:45:43;;;;;;;1.48;1.38;;;;;;;24.89;35.49;98801.28;5111652;28;20173;-81
2021/05/29 11:48:09;;;;;;;5.13;2.00;;;;;;;24.78;35.77;98797.66;5111309;28;20068;-80
2021/05/29 11:50:42;;;;;;;3.33;1.52;;;;;;;24.76;34.94;98800.75;5111818;28;20080;-83
2021/05/29 11:53:10;;;;;;;1.30;1.20;;;;;;;24.68;35.92;98792.88;5111248;28;20435;-82
2021/05/29 11:55:48;;;;;;;;;;;;;;;24.61;35.48;98794.38;5111809;28;20536;-83
2021/05/29 11:58:14;;;;;;;2.50;1.50;;;;;;;24.61;38.15;98799.81;5112632;28;19910;-82